createdAt,value
2017-02-23T00:00:00.209Z,0
2017-02-23T00:01:11.705Z,0
2017-02-23T00:02:23.140Z,0
2017-02-23T00:03:34.570Z,0
2017-02-23T00:04:46.004Z,0
2017-02-23T00:05:57.432Z,0
2017-02-23T00:07:08.867Z,0
2017-02-23T00:08:20.506Z,0
2017-02-23T00:09:31.939Z,0
2017-02-23T00:10:43.368Z,0
2017-02-23T00:11:55.059Z,0
2017-02-23T00:13:06.517Z,0
2017-02-23T00:14:18.149Z,0
2017-02-23T00:15:29.826Z,0
2017-02-23T00:16:41.252Z,0
2017-02-23T00:17:52.724Z,0
2017-02-23T00:19:04.159Z,0
2017-02-23T00:20:15.600Z,0
2017-02-23T00:21:27.240Z,0
2017-02-23T00:22:38.671Z,0
2017-02-23T00:23:50.148Z,0
2017-02-23T00:25:01.593Z,0
2017-02-23T00:26:13.042Z,0
2017-02-23T00:27:24.471Z,0
2017-02-23T00:28:35.900Z,0
2017-02-23T00:29:47.332Z,0
2017-02-23T00:30:59.172Z,0
2017-02-23T00:32:10.618Z,0
2017-02-23T00:33:22.106Z,0
2017-02-23T00:34:33.575Z,0
2017-02-23T00:35:45.013Z,0
2017-02-23T00:36:56.678Z,0
2017-02-23T00:38:08.122Z,0
2017-02-23T00:39:19.568Z,0
2017-02-23T00:40:31.199Z,0
2017-02-23T00:41:42.639Z,0
2017-02-23T00:42:54.066Z,0
2017-02-23T00:44:05.565Z,0
2017-02-23T00:45:17.199Z,0
2017-02-23T00:46:28.633Z,0
2017-02-23T00:47:40.063Z,0
2017-02-23T00:48:51.528Z,0
2017-02-23T00:50:03.163Z,0
2017-02-23T00:51:14.827Z,0
2017-02-23T00:52:26.490Z,0
2017-02-23T00:53:37.926Z,0
2017-02-23T00:54:49.370Z,0
2017-02-23T00:56:00.813Z,0
2017-02-23T00:57:12.440Z,0
2017-02-23T00:58:23.865Z,0
2017-02-23T00:59:35.312Z,0
2017-02-23T01:00:46.737Z,0
2017-02-23T01:01:58.184Z,0
2017-02-23T01:03:09.636Z,0
2017-02-23T01:04:21.070Z,0
2017-02-23T01:05:32.553Z,0
2017-02-23T01:06:43.993Z,0
2017-02-23T01:07:55.439Z,0
2017-02-23T01:09:07.065Z,0
2017-02-23T01:10:18.512Z,0
2017-02-23T01:11:30.162Z,0
2017-02-23T01:12:41.600Z,0
2017-02-23T01:13:53.062Z,0
2017-02-23T01:15:04.491Z,0
2017-02-23T01:16:16.011Z,0
2017-02-23T01:17:27.459Z,0
2017-02-23T01:18:38.893Z,0
2017-02-23T01:19:50.337Z,0
2017-02-23T01:21:01.773Z,0
2017-02-23T01:22:13.224Z,0
2017-02-23T01:23:24.657Z,0
2017-02-23T01:24:36.111Z,0
2017-02-23T01:25:47.566Z,0
2017-02-23T01:26:59.074Z,0
2017-02-23T01:28:10.567Z,0
2017-02-23T01:29:22.204Z,0
2017-02-23T01:30:33.846Z,0
2017-02-23T01:31:45.282Z,0
2017-02-23T01:32:56.930Z,0
2017-02-23T01:34:08.390Z,0
2017-02-23T01:35:19.838Z,0
2017-02-23T01:36:31.293Z,0
2017-02-23T01:37:42.798Z,0
2017-02-23T01:38:54.230Z,0
2017-02-23T01:40:05.862Z,0
2017-02-23T01:41:17.315Z,0
2017-02-23T01:42:28.965Z,0
2017-02-23T01:43:40.408Z,0
2017-02-23T01:44:51.832Z,0
2017-02-23T01:46:03.277Z,0
2017-02-23T01:47:14.715Z,0
2017-02-23T01:48:26.194Z,0
2017-02-23T01:49:37.638Z,0
2017-02-23T01:50:49.078Z,0
2017-02-23T01:52:00.511Z,0
2017-02-23T01:53:11.954Z,0
2017-02-23T01:54:23.591Z,0
2017-02-23T01:55:35.027Z,0
2017-02-23T01:56:46.667Z,0
2017-02-23T01:57:58.111Z,0
2017-02-23T01:59:09.605Z,0
2017-02-23T02:00:21.047Z,0
2017-02-23T02:01:32.506Z,0
2017-02-23T02:02:43.936Z,0
2017-02-23T02:03:55.581Z,0
2017-02-23T02:05:07.065Z,0
2017-02-23T02:06:18.495Z,0
2017-02-23T02:07:29.926Z,0
2017-02-23T02:08:41.382Z,0
2017-02-23T02:09:53.091Z,0
2017-02-23T02:11:04.524Z,0
2017-02-23T02:12:15.972Z,0
2017-02-23T02:13:27.423Z,0
2017-02-23T02:14:38.855Z,0
2017-02-23T02:15:50.282Z,0
2017-02-23T02:17:01.728Z,0
2017-02-23T02:18:13.166Z,0
2017-02-23T02:19:24.603Z,0
2017-02-23T02:20:36.082Z,0
2017-02-23T02:21:47.509Z,0
2017-02-23T02:22:58.945Z,0
2017-02-23T02:24:10.800Z,0
2017-02-23T02:25:22.224Z,0
2017-02-23T02:26:33.654Z,0
2017-02-23T02:27:45.109Z,0
2017-02-23T02:28:56.552Z,0
2017-02-23T02:30:07.997Z,0
2017-02-23T02:31:19.498Z,0
2017-02-23T02:32:31.159Z,0
2017-02-23T02:33:42.596Z,0
2017-02-23T02:34:54.019Z,0
2017-02-23T02:36:05.441Z,0
2017-02-23T02:37:16.926Z,0
2017-02-23T02:38:28.376Z,0
2017-02-23T02:39:39.800Z,0
2017-02-23T02:40:51.243Z,0
2017-02-23T02:42:02.710Z,0
2017-02-23T02:43:14.147Z,0
2017-02-23T02:44:25.593Z,0
2017-02-23T02:45:37.028Z,0
2017-02-23T02:46:48.481Z,0
2017-02-23T02:47:59.904Z,0
2017-02-23T02:49:11.365Z,0
2017-02-23T02:50:22.796Z,0
2017-02-23T02:51:34.222Z,0
2017-02-23T02:52:45.914Z,0
2017-02-23T02:53:57.359Z,0
2017-02-23T02:55:08.782Z,0
2017-02-23T02:56:20.225Z,0
2017-02-23T02:57:31.875Z,0
2017-02-23T02:58:43.333Z,0
2017-02-23T02:59:54.765Z,0
2017-02-23T03:01:06.205Z,0
2017-02-23T03:02:17.636Z,0
2017-02-23T03:03:29.135Z,0
2017-02-23T03:04:40.578Z,0
2017-02-23T03:05:52.019Z,0
2017-02-23T03:07:03.464Z,0
2017-02-23T03:08:14.908Z,0
2017-02-23T03:09:26.394Z,0
2017-02-23T03:10:37.826Z,0
2017-02-23T03:11:49.458Z,0
2017-02-23T03:13:01.089Z,0
2017-02-23T03:14:12.524Z,0
2017-02-23T03:15:23.960Z,0
2017-02-23T03:16:35.595Z,0
2017-02-23T03:17:47.029Z,0
2017-02-23T03:18:58.454Z,0
2017-02-23T03:20:09.950Z,0
2017-02-23T03:21:21.387Z,0
2017-02-23T03:22:32.844Z,0
2017-02-23T03:23:44.280Z,0
2017-02-23T03:24:55.706Z,0
2017-02-23T03:26:07.131Z,0
2017-02-23T03:27:18.575Z,0
2017-02-23T03:28:30.014Z,0
2017-02-23T03:29:41.442Z,0
2017-02-23T03:30:52.920Z,0
2017-02-23T03:32:04.349Z,0
2017-02-23T03:33:15.787Z,0
2017-02-23T03:34:27.236Z,0
2017-02-23T03:35:38.690Z,0
2017-02-23T03:36:50.121Z,0
2017-02-23T03:38:01.761Z,0
2017-02-23T03:39:13.226Z,0
2017-02-23T03:40:24.869Z,0
2017-02-23T03:41:36.351Z,0
2017-02-23T03:42:47.779Z,0
2017-02-23T03:43:59.224Z,0
2017-02-23T03:45:10.713Z,0
2017-02-23T03:46:22.153Z,0
2017-02-23T03:47:33.574Z,0
2017-02-23T03:48:45.024Z,0
2017-02-23T03:49:56.664Z,0
2017-02-23T03:51:08.090Z,0
2017-02-23T03:52:19.581Z,0
2017-02-23T03:53:31.020Z,0
2017-02-23T03:54:42.458Z,0
2017-02-23T03:55:53.894Z,0
2017-02-23T03:57:05.334Z,0
2017-02-23T03:58:16.792Z,0
2017-02-23T03:59:28.246Z,0
2017-02-23T04:00:39.874Z,0
2017-02-23T04:01:51.311Z,0
2017-02-23T04:03:02.758Z,0
2017-02-23T04:04:14.462Z,0
2017-02-23T04:05:25.913Z,0
2017-02-23T04:06:37.356Z,0
2017-02-23T04:07:48.997Z,0
2017-02-23T04:09:00.857Z,0
2017-02-23T04:10:12.290Z,0
2017-02-23T04:11:23.932Z,0
2017-02-23T04:12:35.385Z,0
2017-02-23T04:13:46.915Z,0
2017-02-23T04:14:58.356Z,0
2017-02-23T04:16:09.790Z,0
2017-02-23T04:17:21.240Z,0
2017-02-23T04:18:32.682Z,0
2017-02-23T04:19:44.129Z,0
2017-02-23T04:20:55.580Z,0
2017-02-23T04:22:07.015Z,0
2017-02-23T04:23:18.463Z,0
2017-02-23T04:24:29.950Z,0
2017-02-23T04:25:41.582Z,0
2017-02-23T04:26:53.016Z,0
2017-02-23T04:28:04.441Z,0
2017-02-23T04:29:15.910Z,0
2017-02-23T04:30:27.360Z,0
2017-02-23T04:31:38.800Z,0
2017-02-23T04:32:50.475Z,0
2017-02-23T04:34:02.125Z,0
2017-02-23T04:35:13.620Z,0
2017-02-23T04:36:25.066Z,0
2017-02-23T04:37:36.509Z,0
2017-02-23T04:38:47.955Z,0
2017-02-23T04:39:59.399Z,0
2017-02-23T04:41:10.831Z,0
2017-02-23T04:42:22.520Z,0
2017-02-23T04:43:33.960Z,0
2017-02-23T04:44:45.635Z,0
2017-02-23T04:45:57.291Z,0
2017-02-23T04:47:08.937Z,0
2017-02-23T04:48:20.386Z,0
2017-02-23T04:49:31.833Z,0
2017-02-23T04:50:43.261Z,0
2017-02-23T04:51:54.739Z,0
2017-02-23T04:53:06.173Z,0
2017-02-23T04:54:17.599Z,0
2017-02-23T04:55:29.036Z,0
2017-02-23T04:56:40.474Z,0
2017-02-23T04:57:51.916Z,0
2017-02-23T04:59:03.348Z,0
2017-02-23T05:00:14.823Z,0
2017-02-23T05:01:26.258Z,0
2017-02-23T05:02:37.752Z,0
2017-02-23T05:03:49.202Z,0
2017-02-23T05:05:00.837Z,0
2017-02-23T05:06:12.262Z,0
2017-02-23T05:07:23.703Z,0
2017-02-23T05:08:35.159Z,0
2017-02-23T05:09:46.604Z,0
2017-02-23T05:10:58.037Z,0
2017-02-23T05:12:09.471Z,0
2017-02-23T05:13:20.960Z,0
2017-02-23T05:14:32.408Z,0
2017-02-23T05:15:43.866Z,0
2017-02-23T05:16:55.501Z,0
2017-02-23T05:18:06.939Z,0
2017-02-23T05:19:18.382Z,0
2017-02-23T05:20:29.834Z,0
2017-02-23T05:21:41.280Z,0
2017-02-23T05:22:52.717Z,0
2017-02-23T05:24:04.421Z,0
2017-02-23T05:25:15.869Z,0
2017-02-23T05:26:27.303Z,0
2017-02-23T05:27:38.749Z,0
2017-02-23T05:28:50.179Z,0
2017-02-23T05:30:01.625Z,0
2017-02-23T05:31:13.048Z,0
2017-02-23T05:32:24.493Z,0
2017-02-23T05:33:35.934Z,0
2017-02-23T05:34:47.564Z,0
2017-02-23T05:35:59.086Z,0
2017-02-23T05:37:10.555Z,0
2017-02-23T05:38:22.003Z,0
2017-02-23T05:39:33.640Z,0
2017-02-23T05:40:45.103Z,0
2017-02-23T05:41:56.560Z,0
2017-02-23T05:43:08.009Z,0
2017-02-23T05:44:19.465Z,0
2017-02-23T05:45:30.968Z,0
2017-02-23T05:46:42.402Z,0
2017-02-23T05:47:54.049Z,0
2017-02-23T05:49:05.478Z,0
2017-02-23T05:50:16.920Z,0
2017-02-23T05:51:28.351Z,0
2017-02-23T05:52:39.790Z,0
2017-02-23T05:53:51.241Z,0
2017-02-23T05:55:02.696Z,0
2017-02-23T05:56:14.183Z,0
2017-02-23T05:57:25.630Z,0
2017-02-23T05:58:37.067Z,0
2017-02-23T05:59:48.509Z,0
2017-02-23T06:01:00.143Z,0
2017-02-23T06:02:11.575Z,0
2017-02-23T06:03:23.022Z,0
2017-02-23T06:04:34.458Z,0
2017-02-23T06:05:45.899Z,0
2017-02-23T06:06:57.387Z,0
2017-02-23T06:08:08.840Z,4
2017-02-23T06:09:20.283Z,4
2017-02-23T06:10:31.727Z,0
2017-02-23T06:11:43.182Z,4
2017-02-23T06:12:54.624Z,4
2017-02-23T06:14:06.051Z,4
2017-02-23T06:15:17.490Z,4
2017-02-23T06:16:28.931Z,8
2017-02-23T06:17:40.388Z,8
2017-02-23T06:18:51.830Z,8
2017-02-23T06:20:03.281Z,12
2017-02-23T06:21:14.928Z,12
2017-02-23T06:22:26.371Z,16
2017-02-23T06:23:37.873Z,16
2017-02-23T06:24:49.315Z,20
2017-02-23T06:26:00.757Z,20
2017-02-23T06:27:12.416Z,20
2017-02-23T06:28:23.885Z,24
2017-02-23T06:29:35.307Z,28
2017-02-23T06:30:46.739Z,24
2017-02-23T06:31:58.171Z,28
2017-02-23T06:33:09.606Z,32
2017-02-23T06:34:21.045Z,32
2017-02-23T06:35:32.488Z,36
2017-02-23T06:36:44.118Z,44
2017-02-23T06:37:55.544Z,40
2017-02-23T06:39:07.031Z,40
2017-02-23T06:40:18.475Z,48
2017-02-23T06:41:29.917Z,52
2017-02-23T06:42:41.364Z,52
2017-02-23T06:43:52.829Z,60
2017-02-23T06:45:04.260Z,64
2017-02-23T06:46:15.710Z,60
2017-02-23T06:47:27.153Z,68
2017-02-23T06:48:38.595Z,72
2017-02-23T06:49:50.293Z,72
2017-02-23T06:51:01.741Z,96
2017-02-23T06:52:13.174Z,92
2017-02-23T06:53:24.609Z,100
2017-02-23T06:54:36.056Z,100
2017-02-23T06:55:47.506Z,112
2017-02-23T06:56:58.948Z,144
2017-02-23T06:58:10.816Z,144
2017-02-23T06:59:22.268Z,172
2017-02-23T07:00:33.767Z,152
2017-02-23T07:01:45.216Z,156
2017-02-23T07:02:56.645Z,184
2017-02-23T07:04:08.296Z,168
2017-02-23T07:05:19.960Z,212
2017-02-23T07:06:31.398Z,236
2017-02-23T07:07:42.841Z,264
2017-02-23T07:08:54.294Z,240
2017-02-23T07:10:05.743Z,292
2017-02-23T07:11:17.234Z,308
2017-02-23T07:12:28.700Z,312
2017-02-23T07:13:40.144Z,396
2017-02-23T07:14:51.966Z,320
2017-02-23T07:16:03.398Z,396
2017-02-23T07:17:14.826Z,332
2017-02-23T07:18:26.247Z,412
2017-02-23T07:19:37.693Z,392
2017-02-23T07:20:49.135Z,412
2017-02-23T07:22:00.630Z,428
2017-02-23T07:23:12.056Z,472
2017-02-23T07:24:23.690Z,396
2017-02-23T07:25:35.136Z,416
2017-02-23T07:26:46.623Z,384
2017-02-23T07:27:58.090Z,504
2017-02-23T07:29:09.738Z,468
2017-02-23T07:30:21.193Z,424
2017-02-23T07:31:32.640Z,444
2017-02-23T07:32:44.331Z,424
2017-02-23T07:33:55.772Z,452
2017-02-23T07:35:07.213Z,444
2017-02-23T07:36:18.846Z,504
2017-02-23T07:37:30.284Z,492
2017-02-23T07:38:41.721Z,508
2017-02-23T07:39:53.345Z,620
2017-02-23T07:41:04.796Z,704
2017-02-23T07:42:16.237Z,680
2017-02-23T07:43:27.736Z,676
2017-02-23T07:44:39.174Z,564
2017-02-23T07:45:50.609Z,568
2017-02-23T07:47:02.039Z,648
2017-02-23T07:48:13.695Z,572
2017-02-23T07:49:25.333Z,548
2017-02-23T07:50:36.769Z,512
2017-02-23T07:51:48.204Z,512
2017-02-23T07:52:59.629Z,468
2017-02-23T07:54:11.054Z,480
2017-02-23T07:55:22.490Z,488
2017-02-23T07:56:33.922Z,560
2017-02-23T07:57:45.369Z,520
2017-02-23T07:58:56.811Z,532
2017-02-23T08:00:08.291Z,528
2017-02-23T08:01:19.719Z,628
2017-02-23T08:02:31.357Z,688
2017-02-23T08:03:42.797Z,688
2017-02-23T08:04:54.241Z,708
2017-02-23T08:06:05.674Z,644
2017-02-23T08:07:17.114Z,608
2017-02-23T08:08:28.576Z,512
2017-02-23T08:09:40.025Z,684
2017-02-23T08:10:51.512Z,580
2017-02-23T08:12:02.963Z,688
2017-02-23T08:13:14.395Z,812
2017-02-23T08:14:25.866Z,848
2017-02-23T08:15:37.321Z,772
2017-02-23T08:16:48.777Z,880
2017-02-23T08:18:00.212Z,560
2017-02-23T08:19:11.674Z,532
2017-02-23T08:20:23.112Z,576
2017-02-23T08:21:34.600Z,552
2017-02-23T08:22:46.054Z,520
2017-02-23T08:23:57.496Z,808
2017-02-23T08:25:08.965Z,732
2017-02-23T08:26:20.407Z,620
2017-02-23T08:27:32.129Z,636
2017-02-23T08:28:43.601Z,528
2017-02-23T08:29:55.029Z,640
2017-02-23T08:31:06.480Z,504
2017-02-23T08:32:17.969Z,612
2017-02-23T08:33:29.422Z,656
2017-02-23T08:34:41.049Z,624
2017-02-23T08:35:52.691Z,596
2017-02-23T08:37:04.151Z,656
2017-02-23T08:38:15.783Z,820
2017-02-23T08:39:27.236Z,740
2017-02-23T08:40:38.881Z,772
2017-02-23T08:41:50.328Z,1248
2017-02-23T08:43:01.821Z,1036
2017-02-23T08:44:13.269Z,928
2017-02-23T08:45:24.713Z,856
2017-02-23T08:46:36.140Z,812
2017-02-23T08:47:47.591Z,1000
2017-02-23T08:48:59.014Z,944
2017-02-23T08:50:10.463Z,944
2017-02-23T08:51:21.896Z,924
2017-02-23T08:52:33.339Z,1316
2017-02-23T08:53:45.063Z,1124
2017-02-23T08:54:56.518Z,1072
2017-02-23T08:56:07.969Z,1240
2017-02-23T08:57:19.396Z,1112
2017-02-23T08:58:31.036Z,1040
2017-02-23T08:59:42.464Z,900
2017-02-23T09:00:53.915Z,1084
2017-02-23T09:02:05.340Z,1356
2017-02-23T09:03:16.777Z,1180
2017-02-23T09:04:28.248Z,1352
2017-02-23T09:05:39.868Z,1228
2017-02-23T09:06:51.323Z,1656
2017-02-23T09:08:02.965Z,1352
2017-02-23T09:09:14.419Z,1236
2017-02-23T09:10:26.057Z,1260
2017-02-23T09:11:37.534Z,1220
2017-02-23T09:12:48.974Z,1076
2017-02-23T09:14:00.624Z,1060
2017-02-23T09:15:12.106Z,1164
2017-02-23T09:16:23.547Z,1004
2017-02-23T09:17:34.975Z,944
2017-02-23T09:18:46.411Z,860
2017-02-23T09:19:57.848Z,868
2017-02-23T09:21:09.485Z,916
2017-02-23T09:22:20.911Z,944
2017-02-23T09:23:32.332Z,860
2017-02-23T09:24:43.771Z,980
2017-02-23T09:25:55.278Z,964
2017-02-23T09:27:06.747Z,1068
2017-02-23T09:28:18.190Z,1028
2017-02-23T09:29:29.635Z,976
2017-02-23T09:30:41.062Z,1052
2017-02-23T09:31:52.516Z,1176
2017-02-23T09:33:03.958Z,1056
2017-02-23T09:34:15.418Z,1040
2017-02-23T09:35:26.860Z,1224
2017-02-23T09:36:38.563Z,1144
2017-02-23T09:37:49.994Z,1304
2017-02-23T09:39:01.442Z,1360
2017-02-23T09:40:12.896Z,1260
2017-02-23T09:41:24.325Z,1460
2017-02-23T09:42:35.829Z,1320
2017-02-23T09:43:47.265Z,1476
2017-02-23T09:44:58.740Z,1200
2017-02-23T09:46:10.392Z,1072
2017-02-23T09:47:21.891Z,1368
2017-02-23T09:48:33.350Z,1168
2017-02-23T09:49:44.784Z,1544
2017-02-23T09:50:56.216Z,1424
2017-02-23T09:52:07.650Z,1420
2017-02-23T09:53:19.090Z,1420
2017-02-23T09:54:30.531Z,1668
2017-02-23T09:55:42.192Z,1580
2017-02-23T09:56:53.633Z,1644
2017-02-23T09:58:05.125Z,1708
2017-02-23T09:59:16.580Z,2376
2017-02-23T10:00:28.036Z,1880
2017-02-23T10:01:39.496Z,1772
2017-02-23T10:02:50.929Z,1232
2017-02-23T10:04:02.372Z,1236
2017-02-23T10:05:13.840Z,1224
2017-02-23T10:06:25.279Z,1128
2017-02-23T10:07:36.718Z,1056
2017-02-23T10:08:48.385Z,1036
2017-02-23T10:10:00.249Z,1028
2017-02-23T10:11:11.718Z,1036
2017-02-23T10:12:23.168Z,1024
2017-02-23T10:13:34.631Z,1060
2017-02-23T10:14:46.130Z,1048
2017-02-23T10:15:57.582Z,1020
2017-02-23T10:17:09.019Z,1100
2017-02-23T10:18:20.657Z,1108
2017-02-23T10:19:32.099Z,800
2017-02-23T10:20:43.751Z,708
2017-02-23T10:21:55.191Z,756
2017-02-23T10:23:06.827Z,788
2017-02-23T10:24:18.266Z,840
2017-02-23T10:25:29.749Z,976
2017-02-23T10:26:41.179Z,900
2017-02-23T10:27:52.839Z,996
2017-02-23T10:29:04.281Z,1204
2017-02-23T10:30:15.745Z,1288
2017-02-23T10:31:27.235Z,1892
2017-02-23T10:32:38.658Z,2160
2017-02-23T10:33:50.104Z,2012
2017-02-23T10:35:01.538Z,1492
2017-02-23T10:36:12.964Z,1124
2017-02-23T10:37:24.860Z,1084
2017-02-23T10:38:36.304Z,888
2017-02-23T10:39:47.996Z,1068
2017-02-23T10:40:59.421Z,1072
2017-02-23T10:42:10.901Z,1016
2017-02-23T10:43:22.364Z,1284
2017-02-23T10:44:34.007Z,1004
2017-02-23T10:45:45.438Z,1120
2017-02-23T10:46:56.872Z,1060
2017-02-23T10:48:08.519Z,1144
2017-02-23T10:49:19.968Z,1212
2017-02-23T10:50:31.397Z,1108
2017-02-23T10:51:43.047Z,1164
2017-02-23T10:52:54.488Z,1268
2017-02-23T10:54:05.975Z,1256
2017-02-23T10:55:17.408Z,1448
2017-02-23T10:56:29.034Z,2516
2017-02-23T10:57:40.491Z,2252
2017-02-23T10:58:52.011Z,1852
2017-02-23T11:00:03.438Z,2672
2017-02-23T11:01:15.100Z,3032
2017-02-23T11:02:26.736Z,3064
2017-02-23T11:03:38.181Z,2740
2017-02-23T11:04:49.868Z,2520
2017-02-23T11:06:01.329Z,2388
2017-02-23T11:07:12.778Z,2308
2017-02-23T11:08:24.233Z,2008
2017-02-23T11:09:35.714Z,2812
2017-02-23T11:10:47.156Z,2528
2017-02-23T11:11:58.589Z,3324
2017-02-23T11:13:10.025Z,2512
2017-02-23T11:14:21.480Z,3804
2017-02-23T11:15:33.111Z,4264
2017-02-23T11:16:44.758Z,3716
2017-02-23T11:17:56.185Z,3808
2017-02-23T11:19:08.020Z,3852
2017-02-23T11:20:19.486Z,4364
2017-02-23T11:21:30.938Z,3144
2017-02-23T11:22:42.390Z,3388
2017-02-23T11:23:53.825Z,2960
2017-02-23T11:25:05.464Z,3188
2017-02-23T11:26:16.906Z,3100
2017-02-23T11:27:28.358Z,2748
2017-02-23T11:28:39.992Z,2812
2017-02-23T11:29:51.461Z,2636
2017-02-23T11:31:02.898Z,2384
2017-02-23T11:32:14.562Z,2316
2017-02-23T11:33:26.210Z,1776
2017-02-23T11:34:37.644Z,1352
2017-02-23T11:35:49.088Z,1580
2017-02-23T11:37:00.567Z,1440
2017-02-23T11:38:12.031Z,1852
2017-02-23T11:39:23.450Z,1536
2017-02-23T11:40:34.908Z,1588
2017-02-23T11:41:46.587Z,2084
2017-02-23T11:42:58.038Z,2088
2017-02-23T11:44:09.469Z,1748
2017-02-23T11:45:20.929Z,2700
2017-02-23T11:46:32.421Z,2044
2017-02-23T11:47:44.083Z,2176
2017-02-23T11:48:55.722Z,2004
2017-02-23T11:50:07.155Z,2176
2017-02-23T11:51:18.782Z,2596
2017-02-23T11:52:30.222Z,3028
2017-02-23T11:53:41.659Z,2700
2017-02-23T11:54:53.507Z,3296
2017-02-23T11:56:04.955Z,3096
2017-02-23T11:57:16.407Z,2444
2017-02-23T11:58:27.871Z,2480
2017-02-23T11:59:39.305Z,2680
2017-02-23T12:00:50.730Z,2352
2017-02-23T12:02:02.210Z,2616
2017-02-23T12:03:13.717Z,3132
2017-02-23T12:04:25.164Z,3644
2017-02-23T12:05:36.611Z,3116
2017-02-23T12:06:48.058Z,2480
2017-02-23T12:07:59.759Z,2372
2017-02-23T12:09:11.177Z,2820
2017-02-23T12:10:22.828Z,3188
2017-02-23T12:11:34.464Z,3412
2017-02-23T12:12:46.133Z,2904
2017-02-23T12:13:57.624Z,3388
2017-02-23T12:15:09.078Z,3796
2017-02-23T12:16:20.524Z,2944
2017-02-23T12:17:31.989Z,2900
2017-02-23T12:18:43.622Z,3092
2017-02-23T12:19:55.113Z,3856
2017-02-23T12:21:06.584Z,3832
2017-02-23T12:22:18.220Z,2988
2017-02-23T12:23:29.667Z,3928
2017-02-23T12:24:41.093Z,3636
2017-02-23T12:25:52.555Z,2960
2017-02-23T12:27:03.998Z,2548
2017-02-23T12:28:15.456Z,3096
2017-02-23T12:29:26.947Z,3504
2017-02-23T12:30:38.371Z,3992
2017-02-23T12:31:49.801Z,4224
2017-02-23T12:33:01.454Z,4024
2017-02-23T12:34:13.116Z,4668
2017-02-23T12:35:24.562Z,5220
2017-02-23T12:36:36.035Z,3816
2017-02-23T12:37:47.492Z,4088
2017-02-23T12:38:58.937Z,3912
2017-02-23T12:40:10.429Z,3136
2017-02-23T12:41:21.880Z,2480
2017-02-23T12:42:33.310Z,2156
2017-02-23T12:43:44.748Z,2044
2017-02-23T12:44:56.381Z,3072
2017-02-23T12:46:07.813Z,3552
2017-02-23T12:47:19.255Z,2628
2017-02-23T12:48:30.701Z,2736
2017-02-23T12:49:42.130Z,3188
2017-02-23T12:50:53.612Z,2636
2017-02-23T12:52:05.245Z,2820
2017-02-23T12:53:16.675Z,2780
2017-02-23T12:54:28.121Z,2320
2017-02-23T12:55:39.585Z,2276
2017-02-23T12:56:51.078Z,1724
2017-02-23T12:58:02.723Z,1564
2017-02-23T12:59:14.594Z,1644
2017-02-23T13:00:26.026Z,1268
2017-02-23T13:01:37.476Z,1472
2017-02-23T13:02:49.121Z,1668
2017-02-23T13:04:00.598Z,2384
2017-02-23T13:05:12.036Z,2512
2017-02-23T13:06:23.462Z,2052
2017-02-23T13:07:34.964Z,2304
2017-02-23T13:08:46.407Z,2124
2017-02-23T13:09:57.842Z,1784
2017-02-23T13:11:09.331Z,1480
2017-02-23T13:12:20.970Z,1200
2017-02-23T13:13:32.415Z,1596
2017-02-23T13:14:44.076Z,1824
2017-02-23T13:15:55.714Z,2080
2017-02-23T13:17:07.147Z,2476
2017-02-23T13:18:18.632Z,1988
2017-02-23T13:19:30.274Z,1832
2017-02-23T13:20:41.919Z,1712
2017-02-23T13:21:53.569Z,1688
2017-02-23T13:23:05.193Z,1772
2017-02-23T13:24:16.883Z,1896
2017-02-23T13:25:28.538Z,2292
2017-02-23T13:26:40.001Z,2420
2017-02-23T13:27:51.441Z,2624
2017-02-23T13:29:02.935Z,3032
2017-02-23T13:30:14.371Z,2540
2017-02-23T13:31:25.807Z,1988
2017-02-23T13:32:37.251Z,2244
2017-02-23T13:33:48.680Z,1928
2017-02-23T13:35:00.115Z,2188
2017-02-23T13:36:11.552Z,2640
2017-02-23T13:37:23.227Z,3784
2017-02-23T13:38:34.658Z,3868
2017-02-23T13:39:46.131Z,3284
2017-02-23T13:40:57.569Z,2348
2017-02-23T13:42:09.003Z,2184
2017-02-23T13:43:20.453Z,2680
2017-02-23T13:44:31.883Z,3292
2017-02-23T13:45:43.345Z,2784
2017-02-23T13:46:54.783Z,2224
2017-02-23T13:48:06.221Z,2888
2017-02-23T13:49:17.665Z,2956
2017-02-23T13:50:29.163Z,2620
2017-02-23T13:51:40.600Z,2956
2017-02-23T13:52:52.056Z,2724
2017-02-23T13:54:03.489Z,2120
2017-02-23T13:55:15.135Z,1612
2017-02-23T13:56:26.562Z,2072
2017-02-23T13:57:37.987Z,2256
2017-02-23T13:58:49.411Z,2644
2017-02-23T14:00:00.852Z,3100
2017-02-23T14:01:12.345Z,4036
2017-02-23T14:02:23.772Z,3936
2017-02-23T14:03:35.245Z,3540
2017-02-23T14:04:46.693Z,4044
2017-02-23T14:05:58.128Z,6132
2017-02-23T14:07:09.612Z,5276
2017-02-23T14:08:21.047Z,3660
2017-02-23T14:09:32.491Z,3040
2017-02-23T14:10:44.153Z,2892
2017-02-23T14:11:55.591Z,2580
2017-02-23T14:13:07.090Z,2320
2017-02-23T14:14:18.731Z,2528
2017-02-23T14:15:30.160Z,2328
2017-02-23T14:16:41.629Z,2136
2017-02-23T14:17:53.087Z,2232
2017-02-23T14:19:04.591Z,2108
2017-02-23T14:20:16.029Z,2108
2017-02-23T14:21:27.487Z,1816
2017-02-23T14:22:38.924Z,1788
2017-02-23T14:23:50.383Z,1700
2017-02-23T14:25:02.081Z,1492
2017-02-23T14:26:13.521Z,2776
2017-02-23T14:27:24.976Z,6660
2017-02-23T14:28:36.442Z,6552
2017-02-23T14:29:47.882Z,4020
2017-02-23T14:30:59.381Z,2640
2017-02-23T14:32:10.814Z,4104
2017-02-23T14:33:22.268Z,5408
2017-02-23T14:34:33.713Z,5892
2017-02-23T14:35:45.151Z,5172
2017-02-23T14:36:56.825Z,4868
2017-02-23T14:38:08.266Z,4724
2017-02-23T14:39:19.706Z,4700
2017-02-23T14:40:31.151Z,4052
2017-02-23T14:41:42.804Z,4776
2017-02-23T14:42:54.295Z,4688
2017-02-23T14:44:05.751Z,3976
2017-02-23T14:45:17.195Z,4244
2017-02-23T14:46:28.631Z,3764
2017-02-23T14:47:40.065Z,4216
2017-02-23T14:48:51.750Z,4748
2017-02-23T14:50:03.194Z,4868
2017-02-23T14:51:14.612Z,4584
2017-02-23T14:52:26.048Z,3684
2017-02-23T14:53:37.494Z,3380
2017-02-23T14:54:48.978Z,3720
2017-02-23T14:56:00.419Z,3620
2017-02-23T14:57:11.871Z,4728
2017-02-23T14:58:23.306Z,4556
2017-02-23T14:59:34.750Z,4552
2017-02-23T15:00:46.443Z,4696
2017-02-23T15:01:57.893Z,5412
2017-02-23T15:03:09.551Z,4248
2017-02-23T15:04:20.983Z,3544
2017-02-23T15:05:32.414Z,3240
2017-02-23T15:06:43.900Z,3136
2017-02-23T15:07:55.331Z,3764
2017-02-23T15:09:06.797Z,3912
2017-02-23T15:10:18.244Z,3944
2017-02-23T15:11:29.942Z,3392
2017-02-23T15:12:41.650Z,3596
2017-02-23T15:13:53.082Z,3472
2017-02-23T15:15:04.532Z,3404
2017-02-23T15:16:15.980Z,3152
2017-02-23T15:17:27.608Z,3624
2017-02-23T15:18:39.102Z,3612
2017-02-23T15:19:50.552Z,3260
2017-02-23T15:21:02.008Z,3056
2017-02-23T15:22:13.453Z,2492
2017-02-23T15:23:24.898Z,2492
2017-02-23T15:24:36.400Z,2700
2017-02-23T15:25:47.844Z,2256
2017-02-23T15:26:59.273Z,1736
2017-02-23T15:28:10.714Z,1536
2017-02-23T15:29:22.356Z,1420
2017-02-23T15:30:33.864Z,1164
2017-02-23T15:31:45.324Z,1240
2017-02-23T15:32:56.768Z,1420
2017-02-23T15:34:08.195Z,1660
2017-02-23T15:35:19.644Z,2604
2017-02-23T15:36:31.134Z,3516
2017-02-23T15:37:42.988Z,3896
2017-02-23T15:38:54.422Z,4044
2017-02-23T15:40:05.862Z,4088
2017-02-23T15:41:17.328Z,4368
2017-02-23T15:42:28.821Z,4124
2017-02-23T15:43:40.271Z,3712
2017-02-23T15:44:51.704Z,2992
2017-02-23T15:46:03.150Z,2664
2017-02-23T15:47:14.587Z,2084
2017-02-23T15:48:26.289Z,2208
2017-02-23T15:49:37.745Z,2112
2017-02-23T15:50:49.212Z,1652
2017-02-23T15:52:00.650Z,1352
2017-02-23T15:53:12.301Z,1200
2017-02-23T15:54:23.786Z,1008
2017-02-23T15:55:35.227Z,800
2017-02-23T15:56:46.687Z,592
2017-02-23T15:57:58.137Z,740
2017-02-23T15:59:09.573Z,1188
2017-02-23T16:00:21.264Z,1228
2017-02-23T16:01:32.932Z,1552
2017-02-23T16:02:44.382Z,1704
2017-02-23T16:03:55.846Z,1872
2017-02-23T16:05:07.500Z,1872
2017-02-23T16:06:19.182Z,1800
2017-02-23T16:07:30.624Z,1508
2017-02-23T16:08:42.073Z,1348
2017-02-23T16:09:53.509Z,1216
2017-02-23T16:11:04.967Z,1240
2017-02-23T16:12:16.454Z,1372
2017-02-23T16:13:27.919Z,1332
2017-02-23T16:14:39.350Z,1212
2017-02-23T16:15:50.813Z,1080
2017-02-23T16:17:02.253Z,1028
2017-02-23T16:18:13.756Z,912
2017-02-23T16:19:25.187Z,752
2017-02-23T16:20:36.655Z,572
2017-02-23T16:21:48.094Z,408
2017-02-23T16:22:59.530Z,324
2017-02-23T16:24:10.978Z,304
2017-02-23T16:25:22.403Z,296
2017-02-23T16:26:33.845Z,248
2017-02-23T16:27:45.301Z,164
2017-02-23T16:28:56.804Z,152
2017-02-23T16:30:08.253Z,140
2017-02-23T16:31:19.709Z,172
2017-02-23T16:32:31.142Z,220
2017-02-23T16:33:42.570Z,256
2017-02-23T16:34:54.076Z,244
2017-02-23T16:36:05.507Z,244